Etusivu
METAR-TAF:

METAR-TAF

Lentoasemat :

Antonio B. Won Patin kansainvälinen lentoasema

Hagåtña, Guam, Yhdysvallat

Leveyspiiri: 13-29N, Pituuspiiri: 144-48E, korkeus merenpinnasta: 91 m

Tämänhetkinen sää

Tämä raportti tehtiin 55 minuuttia sitten, kello 14.54 UTC
Tuuli 3 kn etelästä
Lämpötila 27°C
Kosteus 100%
Ilmanpaine 1009 hPa
Näkyvyys: 16.1 km
selkeää

METAR: PGUM 231454Z 19003KT 10SM CLR 27/27 A2980 RMK AO2 SLP083 T02720267 58006

Aika: 01:49 (15:49 UTC)

Sääennuste

Tämä raportti tehtiin 4 tuntia ja 14 minuuttia sitten, kello 11.35 UTC
Ennuste voimassa 23. päivästä klo 12 UTC - 24. päivään klo 18 UTC
Tuuli 5 kn lounaasta
Näkyvyys: 10 km
Hajanaisia pilviä 2800 ft:n korkeudessa
sadekuuroja näköpiirissä

TAF: PGUM 231135Z 2312/2418 22005KT P6SM VCSH SCT028

Säähavainnot ja -ennusteet yli 4000 lentoasemalta (METAR- ja TAF-raportit).

Käytössä olevat sääasemat on merkitty karttaan keltaisilla ja punaisilla pisteillä.

Aseta hiiri pisteen päälle nähdäksesi sääaseman nimen.

Klikkaa sitten nähdäksesi säähavainnot ja -ennusteet.

Kartan vaihtaminen: klikkaa mustalla rastilla varustettuja vihreitä pisteitä, niin voit zoomata sisään; viivalla varustettua vihreää pistettä, niin voit zoomata ulos tai vihreitä nuolia, niin pääset viereisille kartoille.


METAR-TAF: